Egmondgracht — PDWG — position and weather

sailwx.info

Track history (hours):
 
Tides and Currents Weather Stations Pressure Air Temp Water Temp Dewpoint Dewpoint Depression Visibility Wind Speed Wind Dir Waves Ship Positions

Egmondgracht

Last reported at 2014-Nov-23 07:31 UTC. Time now 2014-Nov-24 01:09 UTC.
Position N 38°25' E 015°37'.

Length 136 m; beam 19 m; draft 9 m.

Type: Cargo ship. MMSI: 245716000.

Date/timePositionNaut miles runAvg speedWind from/ knotsBaromVisibWave heightAir tempDewpointWater temp
2014-Nov-23 07:31N 38°25' E 015°37'8 8.7
2014-Nov-23 06:33N 38°23' E 015°27'5510.1
2014-Nov-23 01:04N 38°22' E 014°16'510.0
2014-Nov-23 00:33N 38°23' E 014°09'1010.4
2014-Nov-22 23:33N 38°23' E 013°56'1110.7
2014-Nov-22 22:33N 38°24' E 013°43'1110.7
2014-Nov-22 21:33N 38°25' E 013°29'1110.6
2014-Nov-22 20:33N 38°25' E 013°15'1010.3
2014-Nov-22 19:33N 38°24' E 013°02'1010.2
2014-Nov-22 18:33N 38°22' E 012°49'1010.0
2014-Nov-22 17:32N 38°21' E 012°37'14610.2
2014-Nov-22 03:14N 38°02' E 009°32'4310.5
2014-Nov-21 23:06N 37°54' E 008°38'610.0
2014-Nov-21 22:32N 37°53' E 008°31'1410.0
2014-Nov-21 21:11N 37°51' E 008°14'610.2
2014-Nov-21 20:33N 37°50' E 008°06'1010.0
2014-Nov-21 19:33N 37°48' E 007°54'1110.3
2014-Nov-21 18:28N 37°46' E 007°40'1510.9
2014-Nov-21 17:06N 37°43' E 007°22'810.9
2014-Nov-21 16:22N 37°42' E 007°12'1110.8
2014-Nov-21 15:21N 37°40' E 006°58'1410.8
2014-Nov-21 14:04N 37°38' E 006°41'29911.1
2014-Nov-20 11:10N 36°40' E 000°33'1112.1
2014-Nov-20 10:16N 36°38' E 000°19'811.8
2014-Nov-20 09:33N 36°36' E 000°09'1311.6
2014-Nov-20 08:27N 36°34' W 000°07'24611.6
2014-Nov-19 11:18N 36°01' W 005°09'1013.1
2014-Nov-19 10:33N 35°59' W 005°21'  
2014-Nov-14 05:16N 50°25' W 000°38'1810.6
2014-Nov-14 03:32N 50°30' W 000°10'1010.3
2014-Nov-14 02:33N 50°33' E 000°05'10 9.8
2014-Nov-14 01:33N 50°35' E 000°20'9 9.5
2014-Nov-14 00:33N 50°38' E 000°34'1010.0
2014-Nov-13 23:33N 50°44' E 000°47'1110.5
2014-Nov-13 22:33N 50°50' E 001°01'1110.5
2014-Nov-13 21:33N 50°57' E 001°13'1010.2
2014-Nov-13 20:33N 51°03' E 001°26'10 9.5
2014-Nov-13 19:33N 51°10' E 001°37'9 8.7
2014-Nov-13 18:33N 51°16' E 001°47'8 7.9
2014-Nov-13 17:33N 51°23' E 001°53'8 7.7
2014-Nov-13 16:33N 51°29' E 001°59'9 8.7
2014-Nov-13 15:33N 51°36' E 002°09'13 9.6
2014-Nov-13 14:14N 51°45' E 002°22'3011.0
2014-Nov-13 11:31N 52°08' E 002°54'1111.2
2014-Nov-13 10:33N 52°16' E 003°05'1111.5
2014-Nov-13 09:33N 52°26' E 003°15'1110.5
2014-Nov-13 08:32N 52°34' E 003°26'8 8.1
2014-Nov-13 07:33N 52°41' E 003°34'  
Track history (hours):
 
Tides and Currents Weather Stations Pressure Air Temp Water Temp Dewpoint Dewpoint Depression Visibility Wind Speed Wind Dir Waves Ship Positions

Egmondgracht

Last reported at 2014-Nov-23 07:31 UTC. Time now 2014-Nov-24 01:09 UTC.
Position N 38°25' E 015°37'.

Length 136 m; beam 19 m; draft 9 m.

Type: Cargo ship. MMSI: 245716000.

Date/timePositionNaut miles runAvg speedWind from/ knotsBaromVisibWave heightAir tempDewpointWater temp
2014-Nov-23 07:31N 38°25' E 015°37'8 8.7
2014-Nov-23 06:33N 38°23' E 015°27'5510.1
2014-Nov-23 01:04N 38°22' E 014°16'510.0
2014-Nov-23 00:33N 38°23' E 014°09'1010.4
2014-Nov-22 23:33N 38°23' E 013°56'1110.7
2014-Nov-22 22:33N 38°24' E 013°43'1110.7
2014-Nov-22 21:33N 38°25' E 013°29'1110.6
2014-Nov-22 20:33N 38°25' E 013°15'1010.3
2014-Nov-22 19:33N 38°24' E 013°02'1010.2
2014-Nov-22 18:33N 38°22' E 012°49'1010.0
2014-Nov-22 17:32N 38°21' E 012°37'14610.2
2014-Nov-22 03:14N 38°02' E 009°32'4310.5
2014-Nov-21 23:06N 37°54' E 008°38'610.0
2014-Nov-21 22:32N 37°53' E 008°31'1410.0
2014-Nov-21 21:11N 37°51' E 008°14'610.2
2014-Nov-21 20:33N 37°50' E 008°06'1010.0
2014-Nov-21 19:33N 37°48' E 007°54'1110.3
2014-Nov-21 18:28N 37°46' E 007°40'1510.9
2014-Nov-21 17:06N 37°43' E 007°22'810.9
2014-Nov-21 16:22N 37°42' E 007°12'1110.8
2014-Nov-21 15:21N 37°40' E 006°58'1410.8
2014-Nov-21 14:04N 37°38' E 006°41'29911.1
2014-Nov-20 11:10N 36°40' E 000°33'1112.1
2014-Nov-20 10:16N 36°38' E 000°19'811.8
2014-Nov-20 09:33N 36°36' E 000°09'1311.6
2014-Nov-20 08:27N 36°34' W 000°07'24611.6
2014-Nov-19 11:18N 36°01' W 005°09'1013.1
2014-Nov-19 10:33N 35°59' W 005°21'  
2014-Nov-14 05:16N 50°25' W 000°38'1810.6
2014-Nov-14 03:32N 50°30' W 000°10'1010.3
2014-Nov-14 02:33N 50°33' E 000°05'10 9.8
2014-Nov-14 01:33N 50°35' E 000°20'9 9.5
2014-Nov-14 00:33N 50°38' E 000°34'1010.0
2014-Nov-13 23:33N 50°44' E 000°47'1110.5
2014-Nov-13 22:33N 50°50' E 001°01'1110.5
2014-Nov-13 21:33N 50°57' E 001°13'1010.2
2014-Nov-13 20:33N 51°03' E 001°26'10 9.5
2014-Nov-13 19:33N 51°10' E 001°37'9 8.7
2014-Nov-13 18:33N 51°16' E 001°47'8 7.9
2014-Nov-13 17:33N 51°23' E 001°53'8 7.7
2014-Nov-13 16:33N 51°29' E 001°59'9 8.7
2014-Nov-13 15:33N 51°36' E 002°09'13 9.6
2014-Nov-13 14:14N 51°45' E 002°22'3011.0
2014-Nov-13 11:31N 52°08' E 002°54'1111.2
2014-Nov-13 10:33N 52°16' E 003°05'1111.5
2014-Nov-13 09:33N 52°26' E 003°15'1110.5
2014-Nov-13 08:32N 52°34' E 003°26'8 8.1
2014-Nov-13 07:33N 52°41' E 003°34'  

Dump ship's entire track history